Time;durP1;ratioP1;P1;durP2;ratioP2;P2;SDS_P1;SDS_P2;PMS_P1;PMS_P2;Temp;Humidity;BMP_temperature;BMP_pressure;BME280_temperature;BME280_humidity;BME280_pressure;Samples;Min_cycle;Max_cycle;Signal;HPM_P1;HPM_P2
2023/07/03 00:00:32;;;;;;;22.58;18.58;;;;;;;15.55;100.00;95786.13;5110796;28;20081;-86
2023/07/03 00:03:02;;;;;;;20.42;18.10;;;;;;;15.38;100.00;95766.34;5110463;28;20019;-85
2023/07/03 00:05:28;;;;;;;23.77;19.00;;;;;;;15.35;100.00;95781.59;5113393;28;20479;-84
2023/07/03 00:07:54;;;;;;;22.48;18.10;;;;;;;15.24;100.00;95788.06;5094614;28;20124;-83
2023/07/03 00:10:22;;;;;;;20.92;18.75;;;;;;;15.25;100.00;95795.69;5096789;28;20034;-83
2023/07/03 00:12:48;;;;;;;22.40;18.05;;;;;;;15.23;100.00;95784.63;5111936;28;20043;-85
2023/07/03 00:15:15;;;;;;;20.75;18.75;;;;;;;15.25;100.00;95800.13;5092572;28;20054;-86
2023/07/03 00:17:44;;;;;;;21.52;19.20;;;;;;;15.30;100.00;95798.59;5110217;28;20028;-87
2023/07/03 00:20:13;;;;;;;19.08;17.35;;;;;;;15.29;100.00;95786.53;5110655;28;20019;-86
2023/07/03 00:22:41;;;;;;;19.10;17.10;;;;;;;15.29;100.00;95772.66;5092794;28;20417;-87
2023/07/03 00:25:07;;;;;;;22.17;19.88;;;;;;;15.23;100.00;95766.38;5092021;28;20501;-86
2023/07/03 00:27:32;;;;;;;22.42;20.02;;;;;;;15.25;100.00;95776.63;5110925;28;20068;-88
2023/07/03 00:29:58;;;;;;;24.10;19.90;;;;;;;15.18;100.00;95789.59;5112999;28;20023;-84
2023/07/03 00:32:23;;;;;;;23.80;20.23;;;;;;;15.23;100.00;95800.28;5091858;28;20027;-87
2023/07/03 00:34:49;;;;;;;23.17;19.08;;;;;;;15.17;100.00;95781.94;5091435;28;20023;-87
2023/07/03 00:37:15;;;;;;;22.60;19.13;;;;;;;15.14;100.00;95783.09;5091732;28;20028;-86
2023/07/03 00:39:41;;;;;;;21.20;18.73;;;;;;;14.98;100.00;95782.44;5111869;28;20511;-83
2023/07/03 00:42:07;;;;;;;22.63;19.17;;;;;;;15.03;100.00;95787.91;5114443;28;20036;-85
2023/07/03 00:44:32;;;;;;;22.38;18.77;;;;;;;15.04;100.00;95779.13;5109901;28;20465;-86
2023/07/03 00:46:58;;;;;;;21.00;18.83;;;;;;;14.99;100.00;95758.78;5090514;28;20043;-85
2023/07/03 00:49:24;;;;;;;21.00;18.33;;;;;;;15.06;100.00;95759.69;5074591;28;20043;-86
2023/07/03 00:51:54;;;;;;;21.58;17.70;;;;;;;15.08;100.00;95755.09;5091255;28;20019;-86
2023/07/03 00:54:19;;;;;;;20.60;18.50;;;;;;;15.08;100.00;95749.06;5109683;28;20168;-85
2023/07/03 00:56:45;;;;;;;21.67;19.48;;;;;;;15.01;100.00;95742.94;5109592;28;20102;-86
2023/07/03 00:59:11;;;;;;;21.77;19.48;;;;;;;14.99;100.00;95755.38;5091566;28;20511;-86
2023/07/03 01:01:57;;;;;;;21.38;19.15;;;;;;;14.88;100.00;95764.44;5092470;28;20328;-83
2023/07/03 01:07:01;;;;;;;23.83;19.40;;;;;;;14.77;100.00;95781.28;4989860;28;20046;-86
2023/07/03 01:09:33;;;;;;;27.40;21.05;;;;;;;14.75;100.00;95793.72;4973681;28;20029;-82
2023/07/03 01:11:59;;;;;;;21.70;19.50;;;;;;;14.75;100.00;95792.91;4989257;28;20527;-83
2023/07/03 01:14:25;;;;;;;24.75;19.63;;;;;;;14.84;100.00;95786.63;4990197;28;20050;-84
2023/07/03 01:16:51;;;;;;;22.60;19.58;;;;;;;14.91;100.00;95791.94;4972869;28;20465;-83
2023/07/03 01:19:22;;;;;;;21.02;18.13;;;;;;;14.77;100.00;95775.25;4989716;28;20026;-84
2023/07/03 01:22:19;;;;;;;22.63;20.17;;;;;;;14.88;100.00;95781.88;4989239;28;20034;-86
2023/07/03 01:25:08;;;;;;;23.63;21.35;;;;;;;14.92;100.00;95776.13;4990697;28;20471;-84
2023/07/03 01:27:38;;;;;;;22.35;20.10;;;;;;;14.91;100.00;95771.91;4990301;28;20340;-84
2023/07/03 01:30:06;;;;;;;25.10;20.98;;;;;;;14.88;100.00;95782.69;4972560;28;20027;-83
2023/07/03 01:32:32;;;;;;;28.80;22.95;;;;;;;14.82;100.00;95799.03;4989748;28;20396;-85
2023/07/03 01:35:00;;;;;;;24.13;20.45;;;;;;;14.83;100.00;95815.50;4988648;28;20040;-87
2023/07/03 01:37:27;;;;;;;27.15;22.08;;;;;;;14.74;100.00;95810.34;4989494;28;20077;-88
2023/07/03 01:39:53;;;;;;;34.63;21.45;;;;;;;14.71;100.00;95834.16;4990672;28;20030;-85
2023/07/03 01:42:24;;;;;;;22.67;20.30;;;;;;;14.74;100.00;95844.25;4988660;28;20034;-84
2023/07/03 01:44:49;;;;;;;22.58;20.27;;;;;;;14.88;100.00;95858.31;4973313;28;20267;-85
2023/07/03 01:47:17;;;;;;;24.75;22.08;;;;;;;15.03;100.00;95843.53;4987542;28;20106;-85
2023/07/03 01:49:43;;;;;;;24.33;20.25;;;;;;;15.05;100.00;95833.75;4989387;28;20109;-83
2023/07/03 01:52:43;;;;;;;25.70;22.35;;;;;;;15.08;100.00;95825.56;4988182;28;20480;-84
2023/07/03 01:55:41;;;;;;;27.33;20.67;;;;;;;14.97;100.00;95810.31;4988488;28;20026;-83
2023/07/03 01:58:17;;;;;;;22.67;20.20;;;;;;;15.01;100.00;95806.38;4989499;28;20030;-85
2023/07/03 02:00:51;;;;;;;21.90;19.55;;;;;;;15.04;100.00;95805.19;4971980;28;20041;-83
2023/07/03 02:03:36;;;;;;;27.85;22.38;;;;;;;15.01;100.00;95814.19;5005267;28;20026;-84
2023/07/03 02:06:06;;;;;;;22.75;20.35;;;;;;;14.94;100.00;95812.47;4990366;28;20049;-86
2023/07/03 02:08:31;;;;;;;25.45;22.85;;;;;;;14.87;100.00;95830.63;4987836;28;20109;-84
2023/07/03 02:10:57;;;;;;;26.52;23.60;;;;;;;14.78;100.00;95832.47;4973143;28;20474;-85
2023/07/03 02:13:22;;;;;;;29.38;24.65;;;;;;;14.79;100.00;95859.38;4987570;28;20030;-88
2023/07/03 02:15:48;;;;;;;26.40;23.65;;;;;;;14.72;100.00;95887.94;4988992;28;20037;-86
2023/07/03 02:18:17;;;;;;;26.40;23.58;;;;;;;14.77;100.00;95927.34;4987849;28;20029;-87
2023/07/03 02:20:46;;;;;;;29.80;25.33;;;;;;;14.78;100.00;95938.59;4988888;28;20026;-83
2023/07/03 02:23:12;;;;;;;28.02;22.90;;;;;;;14.80;100.00;95949.69;4972220;28;20030;-87
2023/07/03 02:25:37;;;;;;;27.08;23.50;;;;;;;14.73;100.00;95948.75;4987900;28;20080;-86
2023/07/03 02:28:04;;;;;;;26.13;23.48;;;;;;;14.76;100.00;95951.81;4988610;28;20034;-85
2023/07/03 02:30:29;;;;;;;26.85;24.05;;;;;;;14.74;100.00;95947.75;4987670;28;20056;-86
2023/07/03 02:32:55;;;;;;;31.25;24.20;;;;;;;14.79;100.00;95955.88;4972649;28;20023;-85
2023/07/03 02:35:20;;;;;;;24.60;21.92;;;;;;;14.79;100.00;95955.88;4971161;28;20176;-85
2023/07/03 02:37:46;;;;;;;26.63;23.05;;;;;;;14.79;100.00;95958.50;4972904;28;20023;-85
2023/07/03 02:40:13;;;;;;;25.27;22.48;;;;;;;14.73;100.00;95974.81;4987981;28;20080;-83
2023/07/03 02:42:40;;;;;;;32.95;25.23;;;;;;;14.74;100.00;95976.44;4971826;28;20034;-89
2023/07/03 02:45:06;;;;;;;27.15;24.23;;;;;;;14.76;100.00;95988.34;4988969;28;20022;-86
2023/07/03 02:47:36;;;;;;;27.10;24.20;;;;;;;14.78;100.00;95999.41;4971089;28;20026;-86
2023/07/03 02:50:05;;;;;;;27.00;23.55;;;;;;;14.86;100.00;96009.00;4989033;28;20523;-86
2023/07/03 02:52:31;;;;;;;30.52;25.13;;;;;;;14.92;100.00;96005.69;4970985;28;20563;-85
2023/07/03 02:54:56;;;;;;;28.38;25.30;;;;;;;15.03;100.00;96009.69;4972312;28;20121;-86
2023/07/03 02:57:22;;;;;;;26.58;23.88;;;;;;;15.07;100.00;95997.94;4987613;28;20455;-87
2023/07/03 02:59:47;;;;;;;34.80;26.70;;;;;;;15.07;100.00;96003.16;4974949;28;20428;-86
2023/07/03 03:02:13;;;;;;;31.15;26.60;;;;;;;14.96;100.00;95996.53;4976115;28;20042;-83
2023/07/03 03:04:39;;;;;;;29.30;25.95;;;;;;;15.09;100.00;96022.88;4991228;28;20030;-84
2023/07/03 03:07:04;;;;;;;34.65;27.92;;;;;;;15.13;100.00;96023.34;4975275;28;20042;-86
2023/07/03 03:09:30;;;;;;;32.65;28.92;;;;;;;15.11;100.00;96009.66;4990170;28;20030;-84
2023/07/03 03:11:55;;;;;;;30.02;26.80;;;;;;;15.14;100.00;96025.78;4990704;28;20037;-85
2023/07/03 03:14:21;;;;;;;31.75;28.15;;;;;;;15.16;100.00;96020.38;4990509;28;20038;-85
2023/07/03 03:16:46;;;;;;;29.88;26.70;;;;;;;15.18;100.00;96013.22;4990380;28;20080;-85
2023/07/03 03:19:12;;;;;;;34.08;29.40;;;;;;;15.14;100.00;96010.13;4974663;28;20085;-88
2023/07/03 03:21:38;;;;;;;33.78;28.52;;;;;;;15.13;100.00;96013.72;4989887;28;20019;-85
2023/07/03 03:24:03;;;;;;;31.48;28.00;;;;;;;15.30;100.00;96011.81;4974429;28;20464;-85
2023/07/03 03:26:29;;;;;;;30.60;26.73;;;;;;;15.37;100.00;95994.50;4973599;28;20118;-85
2023/07/03 03:28:54;;;;;;;30.08;26.30;;;;;;;15.48;100.00;95977.59;4990516;28;20032;-83
2023/07/03 03:31:20;;;;;;;30.42;26.83;;;;;;;15.55;100.00;95957.66;4990052;28;20406;-85
2023/07/03 03:33:45;;;;;;;34.20;26.65;;;;;;;15.60;100.00;95934.44;4990021;28;20022;-85
2023/07/03 03:36:11;;;;;;;31.48;28.13;;;;;;;15.56;100.00;95910.47;4991376;28;20049;-85
2023/07/03 03:38:36;;;;;;;30.65;27.45;;;;;;;15.65;100.00;95900.75;4989504;28;20535;-84
2023/07/03 03:41:03;;;;;;;29.55;24.95;;;;;;;15.69;100.00;95889.78;4973960;28;20034;-84
2023/07/03 03:43:29;;;;;;;28.67;25.83;;;;;;;15.75;100.00;95876.00;4973320;28;20062;-85
2023/07/03 03:45:56;;;;;;;29.65;24.67;;;;;;;15.87;100.00;95855.47;4990618;28;20061;-84
2023/07/03 03:48:21;;;;;;;28.05;24.20;;;;;;;16.04;100.00;95825.53;4989796;28;20181;-84
2023/07/03 03:50:48;;;;;;;28.23;25.38;;;;;;;16.13;100.00;95787.84;4989730;28;20548;-81
2023/07/03 03:53:13;;;;;;;24.77;21.75;;;;;;;16.31;100.00;95743.00;4991582;28;20030;-81
2023/07/03 03:55:39;;;;;;;24.92;22.17;;;;;;;16.81;100.00;95653.09;4991064;28;20704;-84
2023/07/03 03:58:04;;;;;;;23.02;20.65;;;;;;;17.29;100.00;95473.28;4991202;28;20022;-83
2023/07/03 04:00:30;;;;;;;21.33;19.27;;;;;;;17.65;100.00;95289.56;4989453;28;20029;-82
2023/07/03 04:02:56;;;;;;;21.10;19.33;;;;;;;18.01;100.00;95143.06;4989911;28;20084;-82
2023/07/03 04:05:21;;;;;;;18.80;17.15;;;;;;;18.85;100.00;94956.22;4988895;28;20507;-83
2023/07/03 04:07:47;;;;;;;21.17;19.38;;;;;;;19.37;100.00;94823.34;4989659;28;20038;-81
2023/07/03 04:10:12;;;;;;;19.55;17.95;;;;;;;18.39;100.00;94868.38;4972285;28;20510;-82
2023/07/03 04:12:38;;;;;;;21.90;19.90;;;;;;;17.98;100.00;95012.41;5005953;28;20121;-81
2023/07/03 04:15:05;;;;;;;25.02;22.33;;;;;;;17.63;100.00;95169.25;4989224;28;20033;-82
2023/07/03 04:17:30;;;;;;;24.95;22.67;;;;;;;17.65;100.00;95294.81;4972846;28;20034;-82
2023/07/03 04:19:56;;;;;;;25.48;22.95;;;;;;;17.83;100.00;95290.50;4973061;28;20664;-82
2023/07/03 04:22:21;;;;;;;26.77;24.15;;;;;;;18.40;100.00;95216.19;4988847;28;20057;-82
2023/07/03 04:24:47;;;;;;;24.73;22.33;;;;;;;17.92;100.00;95176.56;4989537;28;20030;-82
2023/07/03 04:27:14;;;;;;;24.25;21.95;;;;;;;17.89;100.00;95260.03;4972538;28;20506;-82
2023/07/03 04:29:40;;;;;;;27.33;24.58;;;;;;;17.82;100.00;95317.72;4989496;28;20058;-82
2023/07/03 04:32:06;;;;;;;26.55;24.15;;;;;;;17.86;100.00;95367.91;4988909;28;20065;-80
2023/07/03 04:34:31;;;;;;;28.45;25.55;;;;;;;17.76;100.00;95389.28;4989244;28;20030;-83
2023/07/03 04:36:57;;;;;;;27.48;24.77;;;;;;;17.84;100.00;95414.50;4989169;28;20475;-83
2023/07/03 04:39:23;;;;;;;28.92;25.88;;;;;;;17.89;100.00;95465.28;4972651;28;20019;-82
2023/07/03 04:41:48;;;;;;;28.38;25.33;;;;;;;17.84;100.00;95490.50;5005441;28;20040;-83
2023/07/03 04:44:14;;;;;;;29.05;26.27;;;;;;;18.01;100.00;95524.97;4988469;28;20038;-82
2023/07/03 04:46:39;;;;;;;31.58;28.58;;;;;;;17.97;100.00;95524.56;4989258;28;20039;-81
2023/07/03 04:49:05;;;;;;;30.13;27.33;;;;;;;18.18;100.00;95495.50;4989681;28;20488;-83
2023/07/03 04:51:32;;;;;;;31.15;28.17;;;;;;;18.20;100.00;95477.78;4972756;28;20077;-82
2023/07/03 04:53:58;;;;;;;31.25;28.10;;;;;;;18.32;100.00;95501.53;4988572;28;20026;-81
2023/07/03 04:56:25;;;;;;;30.55;27.55;;;;;;;18.42;100.00;95496.69;5005110;28;20122;-82
2023/07/03 04:58:51;;;;;;;30.77;27.88;;;;;;;18.47;100.00;95462.75;4990190;28;20132;-81
2023/07/03 05:01:16;;;;;;;29.30;26.55;;;;;;;18.56;100.00;95430.06;4987915;28;20474;-81
2023/07/03 05:03:42;;;;;;;29.52;26.73;;;;;;;18.57;100.00;95378.38;4989190;28;20117;-81
2023/07/03 05:06:07;;;;;;;29.50;26.60;;;;;;;18.69;100.00;95364.38;4971630;28;20038;-81
2023/07/03 05:08:33;;;;;;;30.27;27.20;;;;;;;18.62;100.00;95365.47;4972395;28;20581;-82
2023/07/03 05:10:59;;;;;;;30.35;27.65;;;;;;;18.63;100.00;95391.47;4988194;28;20030;-82
2023/07/03 05:13:26;;;;;;;31.50;28.13;;;;;;;18.81;100.00;95394.22;4989575;28;20455;-82
2023/07/03 05:15:53;;;;;;;29.17;26.42;;;;;;;19.14;100.00;95333.59;4988453;28;20438;-82
2023/07/03 05:18:18;;;;;;;28.40;25.77;;;;;;;19.34;100.00;95218.66;4987620;28;20046;-80
2023/07/03 05:20:44;;;;;;;29.10;26.27;;;;;;;19.58;100.00;95108.47;4990193;28;20483;-83
2023/07/03 05:23:13;;;;;;;26.25;23.85;;;;;;;20.36;100.00;94959.97;4986611;28;20034;-82
2023/07/03 05:25:39;;;;;;;26.85;24.30;;;;;;;19.86;100.00;94912.31;4988540;28;20392;-81
2023/07/03 05:28:04;;;;;;;25.83;23.52;;;;;;;19.69;100.00;94963.13;4987464;28;20033;-81
2023/07/03 05:30:30;;;;;;;26.70;24.20;;;;;;;19.48;100.00;95021.47;4988380;28;20023;-82
2023/07/03 05:32:55;;;;;;;29.15;25.98;;;;;;;19.34;100.00;95057.59;4987872;28;20073;-81
2023/07/03 05:35:21;;;;;;;28.30;25.70;;;;;;;19.43;100.00;95095.72;4971306;28;20126;-83
2023/07/03 05:37:46;;;;;;;28.17;25.50;;;;;;;19.94;100.00;95056.56;4988244;28;20030;-82
2023/07/03 05:40:14;;;;;;;27.00;23.95;;;;;;;20.62;100.00;94910.50;4970882;28;20486;-81
2023/07/03 05:42:40;;;;;;;25.23;22.80;;;;;;;22.06;100.00;94781.34;4988473;28;20034;-81
2023/07/03 05:45:06;;;;;;;24.33;22.13;;;;;;;24.06;100.00;94612.31;4987023;28;20832;-81
2023/07/03 05:47:32;;;;;;;22.90;20.90;;;;;;;25.33;100.00;94584.69;4987900;28;20128;-82
2023/07/03 05:49:58;;;;;;;21.65;19.55;;;;;;;28.16;100.00;94574.94;4971508;28;20023;-82
2023/07/03 05:52:24;;;;;;;19.25;17.85;;;;;;;27.84;99.85;94568.75;4987212;28;20026;-82
2023/07/03 05:54:50;;;;;;;18.05;16.60;;;;;;;27.21;100.00;94569.78;4987784;28;20045;-82
2023/07/03 05:57:15;;;;;;;20.27;18.50;;;;;;;28.37;95.96;94571.97;4988376;28;20026;-81
2023/07/03 05:59:41;;;;;;;19.25;17.55;;;;;;;27.62;98.32;94570.09;4971666;28;20033;-80
2023/07/03 06:02:11;;;;;;;19.20;17.52;;;;;;;26.11;100.00;94577.63;4986824;28;20502;-80
2023/07/03 06:04:37;;;;;;;18.38;16.88;;;;;;;29.08;89.87;94576.91;4987536;28;20109;-78
2023/07/03 06:07:03;;;;;;;18.75;17.25;;;;;;;30.30;80.05;94578.66;4987141;28;20110;-81
2023/07/03 06:09:29;;;;;;;18.42;16.90;;;;;;;28.30;91.93;94577.69;4987115;28;20033;-80
2023/07/03 06:11:55;;;;;;;18.10;16.75;;;;;;;27.71;92.43;94586.22;4987333;28;20018;-82
2023/07/03 06:14:22;;;;;;;19.25;17.27;;;;;;;26.71;100.00;94586.25;5003007;28;20491;-82
2023/07/03 06:16:49;;;;;;;21.50;19.48;;;;;;;26.19;100.00;94597.56;4988856;28;20096;-80
2023/07/03 06:19:16;;;;;;;18.88;17.33;;;;;;;28.42;94.20;94582.53;4970530;28;20480;-80
2023/07/03 06:21:41;;;;;;;21.88;19.98;;;;;;;28.98;89.39;94582.44;4987773;28;20459;-80
2023/07/03 06:24:08;;;;;;;20.05;18.27;;;;;;;31.06;75.10;94580.28;4987930;28;20031;-78
2023/07/03 06:26:34;;;;;;;19.65;17.98;;;;;;;27.91;91.01;94583.28;4986952;28;20038;-80
2023/07/03 06:29:02;;;;;;;22.52;20.42;;;;;;;30.20;81.52;94584.25;4987248;28;20034;-79
2023/07/03 06:31:28;;;;;;;21.33;19.40;;;;;;;29.93;80.88;94584.31;4986754;28;20030;-80
2023/07/03 06:33:53;;;;;;;20.30;18.30;;;;;;;28.56;92.22;94584.19;4970666;28;20389;-80
2023/07/03 06:36:20;;;;;;;19.05;17.38;;;;;;;27.93;96.10;94581.16;4987664;28;20511;-82
2023/07/03 06:38:50;;;;;;;20.52;18.50;;;;;;;26.86;100.00;94583.47;4987290;28;20026;-80
2023/07/03 06:41:16;;;;;;;17.88;16.25;;;;;;;27.29;100.00;94587.00;4986509;28;20036;-80
2023/07/03 06:43:41;;;;;;;18.25;16.60;;;;;;;28.35;97.45;94582.94;4988178;28;20038;-84
2023/07/03 06:46:10;;;;;;;19.90;18.27;;;;;;;26.68;100.00;94587.56;4971258;28;20050;-80
2023/07/03 06:48:36;;;;;;;19.27;17.67;;;;;;;32.04;73.17;94580.78;4986749;28;20496;-82
2023/07/03 06:51:05;;;;;;;19.83;18.02;;;;;;;33.34;64.27;94574.13;5003240;28;20277;-79
2023/07/03 06:53:31;;;;;;;19.38;17.88;;;;;;;29.75;79.92;94581.47;4986570;28;20038;-82
2023/07/03 06:55:57;;;;;;;20.55;18.85;;;;;;;28.80;90.24;94580.63;4988469;28;20030;-82
2023/07/03 06:58:23;;;;;;;19.58;17.63;;;;;;;29.04;91.42;94581.25;4987610;28;20022;-81
2023/07/03 07:00:49;;;;;;;19.65;17.95;;;;;;;29.11;90.83;94592.34;5003283;28;20498;-80
2023/07/03 07:03:14;;;;;;;18.33;16.92;;;;;;;29.61;87.87;94583.34;4986191;28;20038;-89
2023/07/03 07:05:40;;;;;;;19.13;17.33;;;;;;;29.49;86.25;94582.28;5002561;28;20054;-81
2023/07/03 07:08:05;;;;;;;18.60;16.35;;;;;;;29.43;85.02;94581.59;4987884;28;20042;-83
2023/07/03 07:10:31;;;;;;;17.83;16.30;;;;;;;29.26;87.35;94584.06;4987669;28;20049;-80
2023/07/03 07:12:56;;;;;;;18.98;17.15;;;;;;;29.19;88.65;94578.28;4986817;28;20057;-80
2023/07/03 07:15:22;;;;;;;17.95;16.17;;;;;;;30.76;75.33;94568.44;4986117;28;20480;-81
2023/07/03 07:17:47;;;;;;;19.38;15.63;;;;;;;29.03;89.37;94582.31;4986740;28;20522;-79
2023/07/03 07:20:13;;;;;;;18.50;17.10;;;;;;;28.69;89.71;94588.00;5002333;28;20034;-81
2023/07/03 07:22:38;;;;;;;17.30;15.80;;;;;;;28.75;95.66;94584.97;4986539;28;20027;-84
2023/07/03 07:25:04;;;;;;;17.30;15.80;;;;;;;28.56;89.26;94572.72;4986344;28;20502;-82
2023/07/03 07:27:30;;;;;;;17.80;16.45;;;;;;;28.95;92.76;94575.03;4986497;28;20121;-80
2023/07/03 07:29:55;;;;;;;18.42;16.88;;;;;;;29.14;89.95;94581.06;4986471;28;20121;-81
2023/07/03 07:32:24;;;;;;;18.13;16.63;;;;;;;28.61;91.61;94580.63;5002407;28;20034;-83
2023/07/03 07:34:50;;;;;;;18.48;17.08;;;;;;;27.51;98.04;94576.66;5002439;28;20038;-85
2023/07/03 07:37:15;;;;;;;18.25;16.67;;;;;;;26.80;100.00;94581.88;5002030;28;20038;-80
2023/07/03 07:39:42;;;;;;;19.38;17.60;;;;;;;27.65;99.14;94585.50;5002966;28;20059;-82
2023/07/03 07:42:08;;;;;;;18.40;16.63;;;;;;;27.87;95.80;94579.59;4985793;28;20026;-83
2023/07/03 07:44:33;;;;;;;16.80;15.57;;;;;;;28.25;96.02;94583.09;5003195;28;20107;-85
2023/07/03 07:46:59;;;;;;;18.27;16.58;;;;;;;27.43;100.00;94587.91;5006036;28;20655;-83
2023/07/03 07:49:24;;;;;;;17.85;16.33;;;;;;;27.75;97.73;94584.56;4990138;28;20027;-82
2023/07/03 07:51:50;;;;;;;19.88;17.98;;;;;;;28.14;98.38;94584.31;4991378;28;20109;-83
2023/07/03 07:54:15;;;;;;;17.00;15.60;;;;;;;27.84;100.00;94587.41;4973509;28;20034;-80
2023/07/03 07:56:41;;;;;;;17.63;16.08;;;;;;;27.05;100.00;94583.53;5006405;28;20062;-82
2023/07/03 07:59:06;;;;;;;18.02;16.48;;;;;;;27.79;96.65;94590.91;5005683;28;20076;-89
2023/07/03 08:01:32;;;;;;;16.02;14.65;;;;;;;27.63;98.26;94587.66;4990174;28;20100;-81
2023/07/03 08:03:57;;;;;;;16.60;15.25;;;;;;;27.61;97.99;94589.03;4989084;28;20416;-81
2023/07/03 08:06:23;;;;;;;15.85;14.60;;;;;;;28.03;94.55;94596.19;4989327;28;20069;-82
2023/07/03 08:08:52;;;;;;;16.38;14.82;;;;;;;27.07;93.73;94598.13;4989375;28;20543;-81
2023/07/03 08:11:17;;;;;;;15.23;14.07;;;;;;;27.35;92.58;94583.19;5005493;28;20038;-82
2023/07/03 08:13:43;;;;;;;13.95;12.93;;;;;;;28.13;90.83;94594.19;4989718;28;20030;-82
2023/07/03 08:16:09;;;;;;;13.98;12.65;;;;;;;27.77;85.62;94594.94;5005135;28;20105;-88
2023/07/03 08:18:35;;;;;;;15.02;13.63;;;;;;;27.67;91.11;94593.22;5006313;28;20015;-86
2023/07/03 08:21:00;;;;;;;13.10;12.20;;;;;;;27.51;95.18;94594.47;5004973;28;20110;-80
2023/07/03 08:23:26;;;;;;;11.73;10.80;;;;;;;27.18;89.59;94596.94;4991047;28;20065;-82
2023/07/03 08:25:54;;;;;;;13.02;11.40;;;;;;;27.13;87.23;94594.31;4989794;28;20033;-83
2023/07/03 08:28:20;;;;;;;11.55;10.77;;;;;;;27.83;86.66;94596.47;5005545;28;20451;-86
2023/07/03 08:30:45;;;;;;;11.20;10.20;;;;;;;27.94;88.03;94597.91;5006032;28;20038;-82
2023/07/03 08:33:12;;;;;;;11.35;10.45;;;;;;;28.11;86.69;94592.91;4988614;28;20483;-86
2023/07/03 08:35:38;;;;;;;13.35;12.23;;;;;;;27.85;89.24;94603.09;5005979;28;20046;-79
2023/07/03 08:38:03;;;;;;;12.05;11.05;;;;;;;27.79;89.23;94592.78;4990071;28;20018;-84
2023/07/03 08:40:29;;;;;;;11.25;10.27;;;;;;;28.29;89.78;94597.41;4991241;28;20032;-81
2023/07/03 08:42:58;;;;;;;11.65;10.77;;;;;;;28.23;86.32;94594.03;5004678;28;20038;-81
2023/07/03 08:45:45;;;;;;;11.73;10.82;;;;;;;27.96;85.47;94583.22;5005172;28;20462;-83
2023/07/03 08:48:25;;;;;;;11.45;10.48;;;;;;;28.15;82.37;94589.38;4990119;28;20447;-82
2023/07/03 08:50:53;;;;;;;10.85;10.00;;;;;;;27.81;81.50;94587.94;5004671;28;20035;-86
2023/07/03 08:53:22;;;;;;;11.60;10.50;;;;;;;28.03;81.86;94590.88;5005459;28;20042;-87
2023/07/03 08:55:52;;;;;;;12.23;11.05;;;;;;;27.72;82.35;94585.94;4989714;28;20080;-86
2023/07/03 08:58:18;;;;;;;11.30;10.48;;;;;;;27.72;83.80;94585.94;5004654;28;20026;-84
2023/07/03 09:01:10;;;;;;;11.85;10.82;;;;;;;27.60;82.75;94584.78;4988794;28;20040;-82
2023/07/03 09:04:13;;;;;;;10.82;9.95;;;;;;;27.68;87.94;94595.56;4989264;28;20046;-86
2023/07/03 09:06:47;;;;;;;11.50;10.38;;;;;;;27.34;92.17;94589.59;4989806;28;20054;-82
2023/07/03 09:09:12;;;;;;;11.88;10.98;;;;;;;27.03;91.65;94580.38;4989557;28;20394;-82
2023/07/03 09:11:42;;;;;;;10.55;9.77;;;;;;;27.21;91.14;94592.94;4988367;28;20038;-83
2023/07/03 09:14:12;;;;;;;10.73;9.93;;;;;;;27.19;89.10;94587.09;5004702;28;20534;-84
2023/07/03 09:16:41;;;;;;;11.27;10.35;;;;;;;27.15;82.17;94586.09;5004051;28;20030;-85
2023/07/03 09:19:16;;;;;;;9.98;9.27;;;;;;;27.22;82.10;94586.53;4989784;28;20415;-85
2023/07/03 09:21:42;;;;;;;11.57;10.77;;;;;;;27.27;90.79;94594.44;5003905;28;20041;-82
2023/07/03 09:24:27;;;;;;;11.18;10.30;;;;;;;26.93;90.95;94588.44;5004479;28;20034;-82
2023/07/03 09:27:14;;;;;;;12.25;11.13;;;;;;;26.78;94.64;94597.31;4989544;28;20113;-83
2023/07/03 09:29:41;;;;;;;11.18;10.23;;;;;;;27.55;88.92;94588.28;4988972;28;20121;-82
2023/07/03 09:32:07;;;;;;;11.63;10.55;;;;;;;27.71;88.55;94592.34;4989434;28;20030;-81
2023/07/03 09:35:05;;;;;;;10.45;9.65;;;;;;;27.54;84.45;94592.03;4989106;28;20046;-82
2023/07/03 09:37:32;;;;;;;;;;;;;;;27.03;86.73;94598.97;5004867;28;20034;-85
2023/07/03 09:39:57;;;;;;;11.05;10.20;;;;;;;26.78;94.02;94588.56;5004457;28;19914;-83
2023/07/03 09:42:25;;;;;;;11.70;10.20;;;;;;;26.91;88.66;94585.25;4988552;28;20029;-85
2023/07/03 09:44:51;;;;;;;11.90;10.90;;;;;;;27.03;93.47;94589.13;5004657;28;20068;-83
2023/07/03 09:47:22;;;;;;;11.70;10.70;;;;;;;27.54;96.07;94586.72;5003352;28;20530;-85
2023/07/03 09:49:48;;;;;;;11.57;10.68;;;;;;;27.97;91.83;94579.47;4988104;28;20066;-83
2023/07/03 09:52:14;;;;;;;11.65;10.55;;;;;;;27.67;84.12;94580.69;5003689;28;20150;-87
2023/07/03 09:54:43;;;;;;;11.68;10.73;;;;;;;27.31;85.50;94584.84;5004102;28;20050;-85
2023/07/03 09:57:28;;;;;;;11.40;10.60;;;;;;;27.40;89.25;94575.13;5004288;28;20030;-83
2023/07/03 09:59:54;;;;;;;11.18;10.15;;;;;;;27.67;88.74;94588.69;4987111;28;20454;-82
2023/07/03 10:02:23;;;;;;;11.45;10.65;;;;;;;27.40;83.42;94585.00;5004436;28;20027;-88
2023/07/03 10:04:48;;;;;;;10.68;9.85;;;;;;;27.29;84.04;94579.00;5003047;28;20487;-81
2023/07/03 10:07:16;;;;;;;11.70;10.77;;;;;;;27.15;85.40;94576.25;5003932;28;20026;-84
2023/07/03 10:09:43;;;;;;;11.70;10.68;;;;;;;27.73;84.67;94582.22;5002903;28;20057;-83
2023/07/03 10:12:14;;;;;;;10.75;9.98;;;;;;;27.34;84.42;94581.59;5003692;28;20466;-84
2023/07/03 10:14:58;;;;;;;11.07;10.25;;;;;;;27.26;81.54;94582.22;4989250;28;20054;-83
2023/07/03 10:17:37;;;;;;;11.15;10.25;;;;;;;27.52;90.37;94578.22;4988295;28;20038;-88
2023/07/03 10:20:09;;;;;;;11.82;10.70;;;;;;;27.35;83.24;94571.75;4989330;28;20096;-87
2023/07/03 10:22:37;;;;;;;11.20;10.30;;;;;;;27.69;85.98;94581.19;4986887;28;20719;-85
2023/07/03 10:25:06;;;;;;;11.65;10.63;;;;;;;28.15;87.66;94570.72;5003463;28;20026;-90
2023/07/03 10:27:34;;;;;;;10.82;9.85;;;;;;;28.35;79.68;94574.16;4987729;28;20033;-90
2023/07/03 10:30:00;;;;;;;11.13;10.23;;;;;;;27.71;77.83;94571.03;5003527;28;20098;-83
2023/07/03 10:32:28;;;;;;;10.75;9.98;;;;;;;27.55;77.67;94569.66;4989101;28;20030;-90
2023/07/03 10:35:04;;;;;;;10.90;10.10;;;;;;;27.53;85.47;94576.34;5002796;28;20030;-84
2023/07/03 10:37:34;;;;;;;10.68;9.77;;;;;;;27.39;90.13;94570.88;4987059;28;20181;-82
2023/07/03 10:40:35;;;;;;;11.57;10.65;;;;;;;27.26;87.49;94582.22;5003137;28;20042;-84
2023/07/03 10:43:03;;;;;;;12.27;11.27;;;;;;;27.34;88.90;94570.16;4986641;28;20603;-82
2023/07/03 10:45:31;;;;;;;10.82;9.82;;;;;;;26.93;84.76;94569.81;4987458;28;20062;-82
2023/07/03 10:48:01;;;;;;;10.83;10.03;;;;;;;27.27;89.77;94567.84;5002959;28;20057;-83
2023/07/03 10:51:00;;;;;;;11.27;10.18;;;;;;;28.09;88.82;94569.22;5003089;28;20282;-81
2023/07/03 10:53:45;;;;;;;11.00;9.88;;;;;;;28.68;85.37;94555.22;4980008;28;20125;-84
2023/07/03 10:56:17;;;;;;;10.45;9.75;;;;;;;28.89;86.24;94555.66;5002793;28;20486;-84
2023/07/03 10:58:56;;;;;;;11.18;9.82;;;;;;;28.53;82.77;94549.31;4987240;28;20034;-90
2023/07/03 11:01:41;;;;;;;;;;;;;;;27.86;83.27;94569.25;4987893;28;20026;-90
2023/07/03 11:04:31;;;;;;;10.73;9.13;;;;;;;27.48;78.24;94566.56;5003307;28;19914;-81
2023/07/03 11:07:05;;;;;;;9.98;9.18;;;;;;;27.42;83.25;94561.56;4991578;28;20192;-83
2023/07/03 11:09:41;;;;;;;10.43;9.73;;;;;;;27.68;88.46;94568.16;5000748;28;20515;-79
2023/07/03 11:12:16;;;;;;;9.95;9.25;;;;;;;27.89;87.37;94568.69;5002559;28;20053;-81
2023/07/03 11:15:32;;;;;;;10.18;9.38;;;;;;;27.86;90.05;94574.59;4987008;28;20057;-81
2023/07/03 11:18:03;;;;;;;9.90;9.20;;;;;;;27.93;85.47;94570.50;4964193;28;20031;-81
2023/07/03 11:21:09;;;;;;;8.57;7.97;;;;;;;27.94;79.64;94571.25;4986524;28;20594;-84
2023/07/03 11:23:41;;;;;;;9.18;8.38;;;;;;;27.67;83.98;94567.38;4990815;28;20112;-84